createdAt,value
2023-02-12T00:01:11.958Z,99791.00
2023-02-12T00:03:39.432Z,99786.19
2023-02-12T00:06:07.656Z,99782.94
2023-02-12T00:08:34.869Z,99775.00
2023-02-12T00:11:09.603Z,99771.81
2023-02-12T00:13:38.117Z,99768.69
2023-02-12T00:16:06.665Z,99765.72
2023-02-12T00:18:33.172Z,99764.34
2023-02-12T00:21:07.261Z,99758.47
2023-02-12T00:23:33.760Z,99770.09
2023-02-12T00:26:02.793Z,99764.22
2023-02-12T00:28:29.508Z,99767.06
2023-02-12T00:30:56.329Z,99766.03
2023-02-12T00:33:22.921Z,99767.53
2023-02-12T00:36:01.540Z,99763.41
2023-02-12T00:38:28.285Z,99763.75
2023-02-12T00:40:54.955Z,99759.25
2023-02-12T00:43:23.145Z,99757.41
2023-02-12T00:45:49.724Z,99751.78
2023-02-12T00:48:16.433Z,99749.63
2023-02-12T00:50:49.542Z,99755.94
2023-02-12T00:53:16.643Z,99756.97
2023-02-12T00:55:43.371Z,99757.44
2023-02-12T00:58:10.484Z,99765.97
2023-02-12T01:00:37.399Z,99761.69
2023-02-12T01:03:06.052Z,99764.09
2023-02-12T01:05:32.975Z,99763.88
2023-02-12T01:07:59.910Z,99770.63
2023-02-12T01:10:26.653Z,99770.75
2023-02-12T01:12:53.693Z,99765.56
2023-02-12T01:15:22.208Z,99771.53
2023-02-12T01:17:50.944Z,99767.53
2023-02-12T01:20:18.862Z,99762.50
2023-02-12T01:22:45.561Z,99763.28
2023-02-12T01:25:14.182Z,99764.44
2023-02-12T01:27:42.669Z,99769.00
2023-02-12T01:30:11.952Z,99772.34
2023-02-12T01:32:38.584Z,99771.97
2023-02-12T01:35:10.536Z,99770.47
2023-02-12T01:37:38.126Z,99770.59
2023-02-12T01:40:06.861Z,99769.53
2023-02-12T01:42:35.352Z,99763.66
2023-02-12T01:45:16.284Z,99768.16
2023-02-12T01:47:45.394Z,99762.63
2023-02-12T01:50:17.534Z,99758.13
2023-02-12T01:52:50.443Z,99754.47
2023-02-12T01:55:19.082Z,99753.63
2023-02-12T01:57:47.877Z,99754.34
2023-02-12T02:00:20.214Z,99752.97
2023-02-12T02:02:52.634Z,99740.69
2023-02-12T02:05:31.103Z,99742.66
2023-02-12T02:07:57.639Z,99737.25
2023-02-12T02:10:24.385Z,99734.38
2023-02-12T02:13:11.198Z,99731.59
2023-02-12T02:15:42.527Z,99732.75
2023-02-12T02:18:20.801Z,99735.03
2023-02-12T02:21:08.398Z,99742.25
2023-02-12T02:23:42.397Z,99748.81
2023-02-12T02:26:37.319Z,99733.41
2023-02-12T02:29:28.347Z,99734.69
2023-02-12T02:32:19.865Z,99738.03
2023-02-12T02:34:53.753Z,99734.00
2023-02-12T02:37:34.865Z,99724.38
2023-02-12T02:40:20.185Z,99718.88
2023-02-12T02:42:46.993Z,99717.41
2023-02-12T02:45:24.384Z,99721.53
2023-02-12T02:48:18.026Z,99718.78
2023-02-12T02:50:50.127Z,99718.94
2023-02-12T02:53:31.331Z,99716.97
2023-02-12T02:56:01.775Z,99714.22
2023-02-12T02:58:35.864Z,99707.31
2023-02-12T03:01:11.264Z,99709.53
2023-02-12T03:03:46.763Z,99709.16
2023-02-12T03:06:21.176Z,99709.75
2023-02-12T03:08:54.621Z,99724.13
2023-02-12T03:11:27.131Z,99724.34
2023-02-12T03:13:57.037Z,99709.72
2023-02-12T03:19:02.517Z,99720.66
2023-02-12T03:21:35.909Z,99720.78
2023-02-12T03:24:15.598Z,99716.88
2023-02-12T03:26:50.646Z,99707.22
2023-02-12T03:29:23.856Z,99708.16
2023-02-12T03:32:14.582Z,99707.81
2023-02-12T03:35:06.486Z,99707.69
2023-02-12T03:37:43.127Z,99711.47
2023-02-12T03:40:19.375Z,99720.78
2023-02-12T03:43:06.920Z,99713.66
2023-02-12T03:45:45.137Z,99722.63
2023-02-12T03:48:28.252Z,99722.03
2023-02-12T03:51:01.333Z,99717.00
2023-02-12T03:53:30.251Z,99718.84
2023-02-12T03:56:06.284Z,99716.53
2023-02-12T03:58:35.381Z,99715.50
2023-02-12T04:01:04.339Z,99715.81
2023-02-12T04:03:31.949Z,99723.97
2023-02-12T04:05:58.482Z,99715.81
2023-02-12T04:08:27.277Z,99714.22
2023-02-12T04:11:03.422Z,99720.53
2023-02-12T04:13:56.154Z,99722.03
2023-02-12T04:16:47.423Z,99723.31
2023-02-12T04:19:20.845Z,99718.25
2023-02-12T04:21:55.454Z,99729.16
2023-02-12T04:24:40.340Z,99732.50
2023-02-12T04:27:19.730Z,99724.44
2023-02-12T04:29:56.234Z,99725.84
2023-02-12T04:32:41.292Z,99722.03
2023-02-12T04:35:37.780Z,99724.78
2023-02-12T04:38:06.317Z,99731.03
2023-02-12T04:40:33.240Z,99734.03
2023-02-12T04:42:59.849Z,99739.31
2023-02-12T04:45:31.469Z,99744.94
2023-02-12T04:48:00.680Z,99742.63
2023-02-12T04:50:37.044Z,99739.41
2023-02-12T04:53:03.948Z,99740.69
2023-02-12T04:55:30.429Z,99737.22
2023-02-12T04:58:05.466Z,99733.41
2023-02-12T05:00:32.104Z,99739.41
2023-02-12T05:02:58.841Z,99736.19
2023-02-12T05:05:25.792Z,99735.81
2023-02-12T05:07:52.318Z,99734.81
2023-02-12T05:10:21.209Z,99729.53
2023-02-12T05:12:49.559Z,99735.38
2023-02-12T05:15:16.039Z,99731.22
2023-02-12T05:17:42.547Z,99736.38
2023-02-12T05:20:10.596Z,99731.00
2023-02-12T05:22:38.938Z,99738.94
2023-02-12T05:25:06.340Z,99730.69
2023-02-12T05:27:35.251Z,99732.41
2023-02-12T05:30:02.626Z,99729.06
2023-02-12T05:32:29.129Z,99728.72
2023-02-12T05:35:02.095Z,99725.16
2023-02-12T05:37:28.622Z,99721.91
2023-02-12T05:39:55.092Z,99715.16
2023-02-12T05:42:23.324Z,99723.78
2023-02-12T05:44:51.644Z,99714.91
2023-02-12T05:47:18.114Z,99720.63
2023-02-12T05:49:44.707Z,99723.75
2023-02-12T05:52:11.197Z,99712.00
2023-02-12T05:54:37.678Z,99724.44
2023-02-12T05:57:10.156Z,99720.31
2023-02-12T05:59:36.627Z,99719.03
2023-02-12T06:02:03.154Z,99715.94
2023-02-12T06:04:30.816Z,99714.47
2023-02-12T06:07:00.216Z,99716.19
2023-02-12T06:09:26.997Z,99719.50
2023-02-12T06:11:55.220Z,99716.53
2023-02-12T06:14:21.771Z,99720.22
2023-02-12T06:16:51.403Z,99720.69
2023-02-12T06:19:25.598Z,99714.00
2023-02-12T06:21:55.760Z,99718.69
2023-02-12T06:24:22.235Z,99725.50
2023-02-12T06:26:51.133Z,99710.84
2023-02-12T06:29:19.019Z,99706.03
2023-02-12T06:31:46.068Z,99714.94
2023-02-12T06:34:15.411Z,99716.19
2023-02-12T06:36:44.787Z,99716.88
2023-02-12T06:39:13.328Z,99720.19
2023-02-12T06:41:40.110Z,99715.31
2023-02-12T06:44:07.425Z,99713.31
2023-02-12T06:46:34.667Z,99716.88
2023-02-12T06:49:03.109Z,99720.16
2023-02-12T06:51:33.589Z,99719.47
2023-02-12T06:54:00.128Z,99708.94
2023-02-12T06:56:27.477Z,99721.03
2023-02-12T06:58:57.459Z,99727.44
2023-02-12T07:01:26.644Z,99723.84
2023-02-12T07:04:00.315Z,99722.31
2023-02-12T07:06:27.980Z,99726.66
2023-02-12T07:08:55.912Z,99733.66
2023-02-12T07:11:31.424Z,99727.38
2023-02-12T07:13:58.404Z,99728.59
2023-02-12T07:16:30.964Z,99728.16
2023-02-12T07:18:57.662Z,99728.59
2023-02-12T07:21:24.154Z,99731.88
2023-02-12T07:23:52.472Z,99724.56
2023-02-12T07:26:22.713Z,99724.16
2023-02-12T07:28:55.354Z,99722.91
2023-02-12T07:31:23.412Z,99729.16
2023-02-12T07:33:55.244Z,99728.75
2023-02-12T07:36:22.640Z,99730.97
2023-02-12T07:38:49.194Z,99734.97
2023-02-12T07:41:19.807Z,99736.03
2023-02-12T07:43:48.001Z,99736.16
2023-02-12T07:46:20.896Z,99743.72
2023-02-12T07:48:47.825Z,99734.00
2023-02-12T07:51:16.497Z,99734.59
2023-02-12T07:53:44.781Z,99741.34
2023-02-12T07:56:14.542Z,99733.19
2023-02-12T07:58:42.737Z,99741.75
2023-02-12T08:01:41.381Z,99733.09
2023-02-12T08:04:17.171Z,99733.13
2023-02-12T08:06:48.337Z,99728.41
2023-02-12T08:09:18.302Z,99729.56
2023-02-12T08:11:47.206Z,99735.22
2023-02-12T08:14:18.420Z,99731.34
2023-02-12T08:16:46.631Z,99732.78
2023-02-12T08:19:20.180Z,99734.19
2023-02-12T08:22:00.160Z,99727.31
2023-02-12T08:24:30.713Z,99722.09
2023-02-12T08:26:57.302Z,99732.78
2023-02-12T08:29:29.715Z,99729.13
2023-02-12T08:31:59.556Z,99725.19
2023-02-12T08:34:31.684Z,99726.84
2023-02-12T08:37:05.114Z,99728.75
2023-02-12T08:39:31.930Z,99724.03
2023-02-12T08:42:00.192Z,99734.19
2023-02-12T08:44:26.827Z,99728.91
2023-02-12T08:46:55.606Z,99731.63
2023-02-12T08:49:26.806Z,99722.03
2023-02-12T08:51:55.564Z,99719.91
2023-02-12T08:54:27.808Z,99726.59
2023-02-12T08:57:03.506Z,99722.09
2023-02-12T08:59:30.417Z,99720.22
2023-02-12T09:01:56.977Z,99721.25
2023-02-12T09:04:30.615Z,99723.38
2023-02-12T09:06:57.315Z,99723.63
2023-02-12T09:09:24.026Z,99723.03
2023-02-12T09:11:54.994Z,99726.22
2023-02-12T09:14:25.062Z,99717.13
2023-02-12T09:16:54.146Z,99715.16
2023-02-12T09:19:21.500Z,99710.56
2023-02-12T09:21:54.726Z,99713.94
2023-02-12T09:24:21.936Z,99713.13
2023-02-12T09:26:50.203Z,99704.16
2023-02-12T09:29:18.922Z,99706.06
2023-02-12T09:31:45.574Z,99715.50
2023-02-12T09:34:12.241Z,99717.19
2023-02-12T09:36:38.732Z,99710.56
2023-02-12T09:39:05.687Z,99708.97
2023-02-12T09:41:51.645Z,99711.72
2023-02-12T09:44:26.022Z,99721.13
2023-02-12T09:47:01.545Z,99727.31
2023-02-12T09:49:46.567Z,99724.91
2023-02-12T09:52:17.440Z,99729.16
2023-02-12T09:54:44.556Z,99723.00
2023-02-12T09:57:24.419Z,99725.16
2023-02-12T09:59:59.865Z,99727.81
2023-02-12T10:02:26.585Z,99716.06
2023-02-12T10:05:01.195Z,99713.94
2023-02-12T10:07:41.886Z,99718.75
2023-02-12T10:10:17.492Z,99708.06
2023-02-12T10:12:58.900Z,99712.38
2023-02-12T10:15:34.859Z,99707.41
2023-02-12T10:18:39.701Z,99702.81
2023-02-12T10:21:24.658Z,99708.47
2023-02-12T10:24:02.242Z,99702.63
2023-02-12T10:26:32.092Z,99694.34
2023-02-12T10:29:11.484Z,99699.19
2023-02-12T10:31:42.521Z,99693.50
2023-02-12T10:34:22.753Z,99695.78
2023-02-12T10:36:54.244Z,99688.47
2023-02-12T10:39:34.480Z,99688.09
2023-02-12T10:42:26.069Z,99682.44
2023-02-12T10:44:52.696Z,99683.00
2023-02-12T10:47:21.982Z,99681.47
2023-02-12T10:49:59.310Z,99677.81
2023-02-12T10:52:50.376Z,99681.69
2023-02-12T10:55:25.688Z,99673.44
2023-02-12T10:57:54.535Z,99664.03
2023-02-12T11:00:32.490Z,99659.09
2023-02-12T11:03:11.396Z,99650.88
2023-02-12T11:05:42.563Z,99642.56
2023-02-12T11:08:28.254Z,99643.22
2023-02-12T11:10:54.909Z,99638.69
2023-02-12T11:13:28.380Z,99642.44
2023-02-12T11:15:57.587Z,99628.84
2023-02-12T11:18:27.594Z,99627.78
2023-02-12T11:21:10.190Z,99632.63
2023-02-12T11:23:45.232Z,99622.06
2023-02-12T11:26:20.782Z,99622.22
2023-02-12T11:29:01.542Z,99620.34
2023-02-12T11:31:30.862Z,99616.44
2023-02-12T11:34:12.697Z,99615.50
2023-02-12T11:36:47.658Z,99621.97
2023-02-12T11:39:28.025Z,99611.09
2023-02-12T11:42:07.205Z,99610.78
2023-02-12T11:44:40.462Z,99608.88
2023-02-12T11:47:18.565Z,99602.25
2023-02-12T11:49:55.380Z,99607.84
2023-02-12T11:52:25.733Z,99608.31
2023-02-12T11:54:58.186Z,99596.25
2023-02-12T11:57:42.960Z,99600.41
2023-02-12T12:00:17.361Z,99591.81
2023-02-12T12:03:13.348Z,99585.31
2023-02-12T12:05:46.613Z,99581.69
2023-02-12T12:08:26.140Z,99580.75
2023-02-12T12:10:59.915Z,99578.25
2023-02-12T12:13:39.233Z,99574.09
2023-02-12T12:16:36.791Z,99569.81
2023-02-12T12:19:31.601Z,99562.34
2023-02-12T12:22:16.846Z,99556.63
2023-02-12T12:25:10.527Z,99549.19
2023-02-12T12:28:08.381Z,99541.41
2023-02-12T12:30:54.246Z,99545.38
2023-02-12T12:33:51.440Z,99541.25
2023-02-12T12:36:45.709Z,99531.72
2023-02-12T12:39:12.174Z,99529.34
2023-02-12T12:41:50.153Z,99532.19
2023-02-12T12:44:25.646Z,99528.53
2023-02-12T12:47:21.836Z,99529.00
2023-02-12T12:50:15.978Z,99532.97
2023-02-12T12:52:59.267Z,99528.50
2023-02-12T12:55:35.461Z,99518.69
2023-02-12T12:58:24.117Z,99516.47
2023-02-12T13:01:05.351Z,99512.94
2023-02-12T13:03:44.508Z,99514.69
2023-02-12T13:06:46.593Z,99517.88
2023-02-12T13:09:52.615Z,99514.19
2023-02-12T13:12:37.313Z,99508.28
2023-02-12T13:15:07.019Z,99507.81
2023-02-12T13:18:01.614Z,99506.22
2023-02-12T13:20:47.611Z,99505.44
2023-02-12T13:23:14.432Z,99507.16
2023-02-12T13:29:11.065Z,99506.63
2023-02-12T13:31:49.957Z,99494.81
2023-02-12T13:34:21.171Z,99501.81
2023-02-12T13:36:49.107Z,99501.94
2023-02-12T13:39:44.549Z,99502.09
2023-02-12T13:42:20.770Z,99500.00
2023-02-12T13:45:26.131Z,99500.13
2023-02-12T13:47:52.527Z,99501.06
2023-02-12T13:50:40.601Z,99497.25
2023-02-12T13:53:18.149Z,99496.31
2023-02-12T13:56:03.454Z,99496.31
2023-02-12T13:58:37.608Z,99498.50
2023-02-12T14:01:32.209Z,99498.19
2023-02-12T14:04:14.559Z,99509.28
2023-02-12T14:07:04.462Z,99499.78
2023-02-12T14:09:42.145Z,99502.94
2023-02-12T14:12:12.936Z,99506.75
2023-02-12T14:14:44.347Z,99504.19
2023-02-12T14:20:32.762Z,99492.72
2023-02-12T14:23:03.489Z,99497.78
2023-02-12T14:25:44.299Z,99496.22
2023-02-12T14:28:21.455Z,99499.38
2023-02-12T14:31:23.294Z,99492.53
2023-02-12T14:34:06.576Z,99497.13
2023-02-12T14:36:33.001Z,99486.31
2023-02-12T14:39:01.305Z,99490.63
2023-02-12T14:41:40.567Z,99491.44
2023-02-12T14:44:23.065Z,99491.09
2023-02-12T14:46:55.536Z,99493.97
2023-02-12T14:49:28.941Z,99495.91
2023-02-12T14:52:15.842Z,99503.69
2023-02-12T14:54:52.809Z,99506.91
2023-02-12T14:57:26.397Z,99498.03
2023-02-12T14:59:56.709Z,99504.44
2023-02-12T15:02:32.691Z,99499.34
2023-02-12T15:05:14.090Z,99497.63
2023-02-12T15:07:52.337Z,99502.56
2023-02-12T15:10:22.981Z,99506.56
2023-02-12T15:13:07.187Z,99514.06
2023-02-12T15:15:52.302Z,99515.50
2023-02-12T15:18:31.108Z,99509.66
2023-02-12T15:21:09.791Z,99518.53
2023-02-12T15:23:46.200Z,99514.44
2023-02-12T15:26:31.727Z,99511.28
2023-02-12T15:28:58.632Z,99523.56
2023-02-12T15:31:30.926Z,99523.44
2023-02-12T15:34:00.042Z,99519.16
2023-02-12T15:36:29.573Z,99525.06
2023-02-12T15:38:59.120Z,99525.38
2023-02-12T15:41:36.116Z,99522.03
2023-02-12T15:44:22.009Z,99516.63
2023-02-12T15:46:55.443Z,99519.34
2023-02-12T15:49:26.509Z,99521.72
2023-02-12T15:51:56.978Z,99519.03
2023-02-12T15:54:24.310Z,99523.94
2023-02-12T15:56:50.906Z,99523.13
2023-02-12T15:59:25.537Z,99522.66
2023-02-12T16:01:57.106Z,99523.91
2023-02-12T16:04:31.792Z,99525.19
2023-02-12T16:07:02.295Z,99529.28
2023-02-12T16:09:31.879Z,99530.66
2023-02-12T16:12:02.535Z,99523.84
2023-02-12T16:14:40.899Z,99525.38
2023-02-12T16:17:31.758Z,99530.50
2023-02-12T16:20:02.138Z,99527.44
2023-02-12T16:22:55.697Z,99533.88
2023-02-12T16:25:31.477Z,99524.16
2023-02-12T16:27:58.072Z,99530.56
2023-02-12T16:30:29.114Z,99530.16
2023-02-12T16:32:55.794Z,99532.66
2023-02-12T16:35:26.543Z,99523.28
2023-02-12T16:38:00.142Z,99532.03
2023-02-12T16:40:30.396Z,99535.31
2023-02-12T16:42:59.528Z,99528.50
2023-02-12T16:45:26.689Z,99533.41
2023-02-12T16:48:09.078Z,99530.84
2023-02-12T16:50:39.456Z,99537.81
2023-02-12T16:53:08.488Z,99535.91
2023-02-12T16:55:36.781Z,99536.38
2023-02-12T16:58:03.304Z,99538.06
2023-02-12T17:00:29.747Z,99544.53
2023-02-12T17:02:57.416Z,99543.19
2023-02-12T17:05:24.031Z,99547.41
2023-02-12T17:07:50.831Z,99549.75
2023-02-12T17:10:20.574Z,99545.63
2023-02-12T17:12:51.902Z,99549.56
2023-02-12T17:15:27.746Z,99556.97
2023-02-12T17:17:54.257Z,99549.34
2023-02-12T17:20:26.420Z,99544.81
2023-02-12T17:22:55.152Z,99550.75
2023-02-12T17:25:21.693Z,99543.13
2023-02-12T17:27:48.150Z,99545.41
2023-02-12T17:30:20.909Z,99551.47
2023-02-12T17:32:49.612Z,99549.22
2023-02-12T17:35:16.791Z,99555.13
2023-02-12T17:37:43.399Z,99552.53
2023-02-12T17:40:11.703Z,99552.63
2023-02-12T17:42:38.295Z,99556.97
2023-02-12T17:45:09.494Z,99560.25
2023-02-12T17:47:39.886Z,99553.41
2023-02-12T17:50:14.481Z,99558.81
2023-02-12T17:52:41.522Z,99567.22
2023-02-12T17:55:10.673Z,99566.47
2023-02-12T17:57:39.289Z,99561.72
2023-02-12T18:00:07.584Z,99568.72
2023-02-12T18:02:34.293Z,99567.66
2023-02-12T18:05:02.618Z,99567.97
2023-02-12T18:07:36.761Z,99565.91
2023-02-12T18:10:07.494Z,99566.19
2023-02-12T18:12:34.952Z,99570.25
2023-02-12T18:15:03.850Z,99568.69
2023-02-12T18:17:33.509Z,99565.03
2023-02-12T18:20:00.125Z,99568.53
2023-02-12T18:22:26.766Z,99569.88
2023-02-12T18:25:01.886Z,99571.78
2023-02-12T18:27:28.513Z,99561.69
2023-02-12T18:29:57.014Z,99564.91
2023-02-12T18:32:24.701Z,99568.66
2023-02-12T18:34:51.448Z,99564.91
2023-02-12T18:37:18.075Z,99567.53
2023-02-12T18:39:44.711Z,99567.31
2023-02-12T18:42:11.196Z,99571.84
2023-02-12T18:44:40.287Z,99568.66
2023-02-12T18:47:08.846Z,99562.31
2023-02-12T18:49:35.404Z,99560.16
2023-02-12T18:52:02.246Z,99564.50
2023-02-12T18:54:29.267Z,99564.22
2023-02-12T18:56:58.142Z,99561.63
2023-02-12T18:59:27.252Z,99572.03
2023-02-12T19:01:56.373Z,99564.34
2023-02-12T19:04:25.361Z,99568.38
2023-02-12T19:06:53.727Z,99569.44
2023-02-12T19:09:26.456Z,99570.00
2023-02-12T19:11:55.324Z,99567.88
2023-02-12T19:14:23.836Z,99572.66
2023-02-12T19:16:55.990Z,99566.53
2023-02-12T19:19:24.857Z,99567.38
2023-02-12T19:21:51.896Z,99562.56
2023-02-12T19:24:19.198Z,99566.31
2023-02-12T19:26:45.904Z,99572.47
2023-02-12T19:29:13.483Z,99575.66
2023-02-12T19:31:43.979Z,99578.31
2023-02-12T19:34:19.480Z,99583.41
2023-02-12T19:36:48.132Z,99574.34
2023-02-12T19:39:20.683Z,99586.09
2023-02-12T19:41:47.869Z,99579.97
2023-02-12T19:44:19.588Z,99578.91
2023-02-12T19:46:47.939Z,99581.28
2023-02-12T19:49:20.758Z,99584.22
2023-02-12T19:51:47.928Z,99587.69
2023-02-12T19:54:17.829Z,99584.19
2023-02-12T19:56:45.080Z,99574.34
2023-02-12T19:59:17.416Z,99581.81
2023-02-12T20:01:44.360Z,99581.25
2023-02-12T20:04:14.452Z,99580.47
2023-02-12T20:06:43.766Z,99587.66
2023-02-12T20:09:11.576Z,99583.41
2023-02-12T20:11:39.251Z,99579.91
2023-02-12T20:14:11.277Z,99589.25
2023-02-12T20:16:39.473Z,99584.69
2023-02-12T20:19:12.053Z,99587.09
2023-02-12T20:21:39.357Z,99583.34
2023-02-12T20:24:06.275Z,99576.41
2023-02-12T20:26:33.775Z,99586.00
2023-02-12T20:29:03.297Z,99588.63
2023-02-12T20:31:33.843Z,99586.50
2023-02-12T20:34:05.289Z,99583.28
2023-02-12T20:36:34.684Z,99588.31
2023-02-12T20:39:01.375Z,99589.84
2023-02-12T20:41:28.750Z,99596.47
2023-02-12T20:43:59.024Z,99594.31
2023-02-12T20:46:27.188Z,99590.03
2023-02-12T20:49:04.380Z,99591.38
2023-02-12T20:51:31.350Z,99590.56
2023-02-12T20:54:00.201Z,99586.31
2023-02-12T20:56:30.622Z,99596.13
2023-02-12T20:58:58.866Z,99586.03
2023-02-12T21:01:32.818Z,99592.16
2023-02-12T21:04:03.908Z,99599.06
2023-02-12T21:06:32.987Z,99601.13
2023-02-12T21:09:01.335Z,99602.94
2023-02-12T21:11:30.176Z,99606.13
2023-02-12T21:14:02.191Z,99607.19
2023-02-12T21:16:41.076Z,99605.59
2023-02-12T21:19:08.790Z,99612.78
2023-02-12T21:21:38.927Z,99605.31
2023-02-12T21:24:08.485Z,99605.84
2023-02-12T21:26:37.154Z,99611.69
2023-02-12T21:29:04.508Z,99614.88
2023-02-12T21:31:34.258Z,99611.69
2023-02-12T21:34:02.162Z,99607.94
2023-02-12T21:36:32.086Z,99608.41
2023-02-12T21:38:59.232Z,99604.72
2023-02-12T21:41:36.916Z,99605.75
2023-02-12T21:44:13.531Z,99606.28
2023-02-12T21:46:40.662Z,99607.09
2023-02-12T21:49:07.663Z,99607.56
2023-02-12T21:51:43.022Z,99609.91
2023-02-12T21:54:16.791Z,99609.38
2023-02-12T21:56:45.921Z,99617.81
2023-02-12T21:59:13.884Z,99611.16
2023-02-12T22:01:51.395Z,99622.28
2023-02-12T22:04:19.580Z,99622.53
2023-02-12T22:06:49.850Z,99621.41
2023-02-12T22:09:20.018Z,99630.47
2023-02-12T22:11:46.846Z,99625.22
2023-02-12T22:14:16.644Z,99626.75
2023-02-12T22:16:43.745Z,99622.75
2023-02-12T22:19:10.377Z,99628.25
2023-02-12T22:21:39.545Z,99624.81
2023-02-12T22:24:19.737Z,99627.78
2023-02-12T22:26:46.281Z,99635.19
2023-02-12T22:29:15.256Z,99638.59
2023-02-12T22:31:43.922Z,99634.34
2023-02-12T22:34:14.058Z,99622.63
2023-02-12T22:36:42.085Z,99632.19
2023-02-12T22:39:14.777Z,99631.41
2023-02-12T22:41:42.458Z,99631.94
2023-02-12T22:44:10.737Z,99633.50
2023-02-12T22:46:37.397Z,99633.41
2023-02-12T22:49:04.233Z,99630.69
2023-02-12T22:51:34.549Z,99637.09
2023-02-12T22:54:03.458Z,99635.56
2023-02-12T22:56:29.973Z,99625.72
2023-02-12T22:58:58.642Z,99633.50
2023-02-12T23:01:26.326Z,99644.72
2023-02-12T23:03:56.670Z,99641.06
2023-02-12T23:06:26.958Z,99637.47
2023-02-12T23:08:57.016Z,99643.22
2023-02-12T23:11:24.640Z,99649.22
2023-02-12T23:13:51.863Z,99650.16
2023-02-12T23:16:20.197Z,99654.25
2023-02-12T23:18:47.255Z,99655.69
2023-02-12T23:21:17.454Z,99654.66
2023-02-12T23:23:45.744Z,99653.66
2023-02-12T23:26:12.293Z,99651.56
2023-02-12T23:28:38.844Z,99647.84
2023-02-12T23:31:14.205Z,99656.41
2023-02-12T23:33:40.801Z,99654.81
2023-02-12T23:36:07.602Z,99652.19
2023-02-12T23:38:34.285Z,99655.91
2023-02-12T23:41:00.744Z,99657.22
2023-02-12T23:43:29.190Z,99651.91
2023-02-12T23:45:55.821Z,99656.19
2023-02-12T23:48:22.398Z,99653.25
2023-02-12T23:50:50.026Z,99651.91
2023-02-12T23:53:25.993Z,99654.06
2023-02-12T23:55:56.348Z,99655.41
2023-02-12T23:58:26.419Z,99657.53
